createdAt,value
2017-09-15T00:02:25.426Z,12.54
2017-09-15T00:04:54.533Z,12.55
2017-09-15T00:07:22.842Z,12.59
2017-09-15T00:09:51.170Z,12.64
2017-09-15T00:12:19.481Z,12.66
2017-09-15T00:14:47.790Z,12.60
2017-09-15T00:17:16.865Z,12.73
2017-09-15T00:19:45.170Z,12.78
2017-09-15T00:22:13.498Z,12.73
2017-09-15T00:24:41.802Z,12.70
2017-09-15T00:27:10.878Z,12.66
2017-09-15T00:29:39.194Z,12.66
2017-09-15T00:32:07.501Z,12.61
2017-09-15T00:34:35.825Z,12.58
2017-09-15T00:37:04.129Z,12.54
2017-09-15T00:39:32.442Z,12.50
2017-09-15T00:42:00.759Z,12.51
2017-09-15T00:44:29.057Z,12.60
2017-09-15T00:46:57.362Z,12.67
2017-09-15T00:49:25.670Z,12.77
2017-09-15T00:51:53.986Z,12.85
2017-09-15T00:54:23.077Z,12.90
2017-09-15T00:56:52.152Z,12.97
2017-09-15T00:59:20.458Z,13.08
2017-09-15T01:01:48.773Z,13.14
2017-09-15T01:04:17.069Z,13.10
2017-09-15T01:06:45.389Z,13.16
2017-09-15T01:09:13.690Z,13.18
2017-09-15T01:11:42.029Z,13.19
2017-09-15T01:14:11.093Z,13.19
2017-09-15T01:16:39.390Z,13.17
2017-09-15T01:19:07.701Z,13.23
2017-09-15T01:21:36.038Z,13.20
2017-09-15T01:24:04.352Z,13.20
2017-09-15T01:26:32.657Z,13.17
2017-09-15T01:29:01.022Z,13.16
2017-09-15T01:31:29.370Z,13.20
2017-09-15T01:33:58.496Z,13.21
2017-09-15T01:36:26.802Z,13.20
2017-09-15T01:38:55.134Z,13.14
2017-09-15T01:41:23.439Z,13.09
2017-09-15T01:43:51.759Z,12.95
2017-09-15T01:46:20.080Z,12.83
2017-09-15T01:48:48.403Z,12.85
2017-09-15T01:51:16.725Z,12.88
2017-09-15T01:53:45.034Z,12.91
2017-09-15T01:56:14.110Z,13.01
2017-09-15T01:58:42.429Z,12.94
2017-09-15T02:01:10.738Z,12.92
2017-09-15T02:03:39.809Z,12.96
2017-09-15T02:06:08.110Z,13.00
2017-09-15T02:08:37.205Z,12.98
2017-09-15T02:11:06.290Z,13.02
2017-09-15T02:13:35.361Z,13.03
2017-09-15T02:16:03.672Z,13.02
2017-09-15T02:18:32.761Z,13.08
2017-09-15T02:21:01.833Z,13.05
2017-09-15T02:23:30.133Z,12.98
2017-09-15T02:25:59.220Z,13.02
2017-09-15T02:28:28.293Z,13.07
2017-09-15T02:30:56.626Z,12.99
2017-09-15T02:33:24.934Z,12.90
2017-09-15T02:35:53.242Z,12.80
2017-09-15T02:38:21.551Z,12.75
2017-09-15T02:40:49.850Z,12.65
2017-09-15T02:43:18.178Z,12.51
2017-09-15T02:45:46.487Z,12.46
2017-09-15T02:48:14.815Z,12.39
2017-09-15T02:50:43.134Z,12.33
2017-09-15T02:53:11.439Z,12.32
2017-09-15T02:55:39.745Z,12.28
2017-09-15T02:58:08.059Z,12.24
2017-09-15T03:00:37.161Z,12.23
2017-09-15T03:03:05.480Z,12.13
2017-09-15T03:05:33.802Z,12.09
2017-09-15T03:08:02.879Z,12.10
2017-09-15T03:10:31.186Z,12.07
2017-09-15T03:12:59.523Z,12.09
2017-09-15T03:15:27.850Z,12.10
2017-09-15T03:17:56.158Z,12.06
2017-09-15T03:20:24.473Z,12.05
2017-09-15T03:22:52.787Z,11.99
2017-09-15T03:25:21.124Z,12.03
2017-09-15T03:27:49.443Z,12.02
2017-09-15T03:30:17.753Z,12.05
2017-09-15T03:32:46.070Z,11.98
2017-09-15T03:35:15.200Z,11.98
2017-09-15T03:37:43.534Z,11.94
2017-09-15T03:40:12.618Z,11.97
2017-09-15T03:42:40.924Z,11.95
2017-09-15T03:45:09.253Z,11.95
2017-09-15T03:47:37.562Z,11.89
2017-09-15T03:50:05.894Z,11.87
2017-09-15T03:52:34.194Z,11.85
2017-09-15T03:55:02.506Z,11.88
2017-09-15T03:57:31.630Z,11.84
2017-09-15T03:59:59.932Z,11.80
2017-09-15T04:02:28.277Z,11.78
2017-09-15T04:04:56.599Z,11.74
2017-09-15T04:07:24.906Z,11.72
2017-09-15T04:09:54.041Z,11.70
2017-09-15T04:12:22.353Z,11.67
2017-09-15T04:14:50.702Z,11.64
2017-09-15T04:17:19.890Z,11.61
2017-09-15T04:19:48.202Z,11.60
2017-09-15T04:22:16.531Z,11.66
2017-09-15T04:24:44.829Z,11.57
2017-09-15T04:27:13.154Z,11.64
2017-09-15T04:29:41.453Z,11.63
2017-09-15T04:32:09.757Z,11.58
2017-09-15T04:34:38.065Z,11.57
2017-09-15T04:37:06.369Z,11.53
2017-09-15T04:39:35.474Z,11.51
2017-09-15T04:42:04.589Z,11.55
2017-09-15T04:44:32.897Z,11.52
2017-09-15T04:47:01.224Z,11.54
2017-09-15T04:49:30.301Z,11.56
2017-09-15T04:51:58.711Z,11.51
2017-09-15T04:54:27.012Z,11.60
2017-09-15T04:56:55.322Z,11.61
2017-09-15T04:59:23.647Z,11.59
2017-09-15T05:01:51.977Z,11.58
2017-09-15T05:04:20.328Z,11.56
2017-09-15T05:06:48.639Z,11.54
2017-09-15T05:09:16.942Z,11.49
2017-09-15T05:11:46.063Z,11.47
2017-09-15T05:14:15.162Z,11.47
2017-09-15T05:16:43.506Z,11.49
2017-09-15T05:19:11.830Z,11.46
2017-09-15T05:21:40.134Z,11.56
2017-09-15T05:24:08.451Z,11.54
2017-09-15T05:26:37.522Z,11.52
2017-09-15T05:29:05.910Z,11.56
2017-09-15T05:31:34.234Z,11.54
2017-09-15T05:34:02.542Z,11.66
2017-09-15T05:36:30.851Z,11.79
2017-09-15T05:38:59.157Z,11.82
2017-09-15T05:41:27.489Z,11.89
2017-09-15T05:43:55.797Z,11.86
2017-09-15T05:46:24.871Z,11.97
2017-09-15T05:48:53.203Z,11.95
2017-09-15T05:51:21.513Z,11.88
2017-09-15T05:53:49.854Z,11.95
2017-09-15T05:56:18.150Z,12.10
2017-09-15T05:58:46.463Z,12.20
2017-09-15T06:01:14.773Z,12.27
2017-09-15T06:03:43.073Z,12.35
2017-09-15T06:09:08.482Z,12.53
2017-09-15T06:11:36.781Z,12.64
2017-09-15T06:14:05.101Z,12.72
2017-09-15T06:16:33.408Z,12.65
2017-09-15T06:19:01.749Z,12.75
2017-09-15T06:21:30.062Z,12.75
2017-09-15T06:23:58.367Z,12.77
2017-09-15T06:26:26.684Z,12.87
2017-09-15T06:28:55.008Z,12.99
2017-09-15T06:31:23.543Z,13.02
2017-09-15T06:33:51.854Z,13.16
2017-09-15T06:36:20.199Z,13.29
2017-09-15T06:38:48.508Z,13.25
2017-09-15T06:41:16.821Z,13.42
2017-09-15T06:43:45.129Z,13.49
2017-09-15T06:46:13.438Z,13.62
2017-09-15T06:48:41.755Z,13.75
2017-09-15T06:51:10.053Z,13.69
2017-09-15T06:53:38.395Z,13.84
2017-09-15T06:56:06.711Z,13.72
2017-09-15T06:58:35.009Z,13.87
2017-09-15T07:01:04.108Z,14.00
2017-09-15T07:03:33.183Z,14.03
2017-09-15T07:06:01.505Z,14.14
2017-09-15T07:08:29.805Z,14.37
2017-09-15T07:10:58.141Z,14.24
2017-09-15T07:13:33.132Z,14.41
2017-09-15T07:16:01.468Z,14.45
2017-09-15T07:18:29.786Z,14.57
2017-09-15T07:20:59.605Z,14.65
2017-09-15T07:23:27.915Z,14.68
2017-09-15T07:25:56.978Z,14.96
2017-09-15T07:28:25.290Z,15.01
2017-09-15T07:30:53.595Z,15.10
2017-09-15T07:33:21.929Z,14.94
2017-09-15T07:35:50.995Z,14.84
2017-09-15T07:38:19.314Z,14.98
2017-09-15T07:40:48.410Z,15.21
2017-09-15T07:43:17.506Z,15.41
2017-09-15T07:45:46.582Z,15.37
2017-09-15T07:48:14.896Z,15.64
2017-09-15T07:50:43.227Z,15.51
2017-09-15T07:53:11.532Z,15.58
2017-09-15T07:55:40.616Z,15.64
2017-09-15T07:58:08.922Z,15.73
2017-09-15T08:00:37.225Z,15.47
2017-09-15T08:03:05.542Z,15.51
2017-09-15T08:05:33.854Z,15.88
2017-09-15T08:08:02.277Z,16.37
2017-09-15T08:10:30.575Z,17.06
2017-09-15T08:12:58.883Z,17.55
2017-09-15T08:15:27.208Z,17.72
2017-09-15T08:17:55.501Z,18.06
2017-09-15T08:20:25.317Z,18.05
2017-09-15T08:22:54.382Z,17.85
2017-09-15T08:25:22.791Z,18.24
2017-09-15T08:27:51.108Z,18.07
2017-09-15T08:30:19.406Z,18.09
2017-09-15T08:32:47.823Z,17.87
2017-09-15T08:35:16.130Z,17.63
2017-09-15T08:37:45.207Z,17.20
2017-09-15T08:40:13.505Z,17.04
2017-09-15T08:42:41.844Z,18.23
2017-09-15T08:45:10.190Z,17.74
2017-09-15T08:47:38.516Z,17.29
2017-09-15T08:50:07.615Z,17.35
2017-09-15T08:52:36.781Z,17.33
2017-09-15T08:55:05.103Z,17.29
2017-09-15T08:57:34.182Z,17.60
2017-09-15T09:00:03.280Z,17.82
2017-09-15T09:02:31.619Z,18.64
2017-09-15T09:04:59.931Z,18.94
2017-09-15T09:07:29.010Z,19.63
2017-09-15T09:09:57.308Z,18.92
2017-09-15T09:12:26.397Z,19.14
2017-09-15T09:14:54.693Z,19.38
2017-09-15T09:17:23.793Z,20.27
2017-09-15T09:19:52.090Z,18.75
2017-09-15T09:22:20.390Z,18.15
2017-09-15T09:24:48.702Z,18.25
2017-09-15T09:27:17.015Z,19.22
2017-09-15T09:29:45.338Z,22.62
2017-09-15T09:32:13.647Z,24.69
2017-09-15T09:34:42.738Z,22.20
2017-09-15T09:37:11.801Z,19.26
2017-09-15T09:39:40.101Z,18.58
2017-09-15T09:42:08.405Z,17.78
2017-09-15T09:44:36.704Z,17.99
2017-09-15T09:47:05.028Z,18.46
2017-09-15T09:49:33.329Z,21.53
2017-09-15T09:52:02.434Z,20.64
2017-09-15T09:54:30.739Z,19.15
2017-09-15T09:56:59.089Z,18.39
2017-09-15T09:59:27.402Z,17.78
2017-09-15T10:01:55.711Z,17.93
2017-09-15T10:04:24.021Z,18.22
2017-09-15T10:06:52.321Z,19.61
2017-09-15T10:09:20.661Z,20.32
2017-09-15T10:11:49.733Z,19.32
2017-09-15T10:14:18.024Z,18.17
2017-09-15T10:16:47.106Z,17.98
2017-09-15T10:19:15.409Z,17.37
2017-09-15T10:21:44.485Z,17.10
2017-09-15T10:24:12.791Z,17.25
2017-09-15T10:26:41.127Z,17.42
2017-09-15T10:29:09.435Z,19.04
2017-09-15T10:31:38.501Z,18.79
2017-09-15T10:34:06.809Z,19.44
2017-09-15T10:36:35.875Z,19.08
2017-09-15T10:39:04.202Z,21.82
2017-09-15T10:41:32.519Z,22.00
2017-09-15T10:44:00.823Z,23.38
2017-09-15T10:46:29.901Z,24.45
2017-09-15T10:48:58.194Z,24.24
2017-09-15T10:51:27.265Z,24.16
2017-09-15T10:53:55.574Z,24.50
2017-09-15T10:56:24.661Z,25.09
2017-09-15T10:58:59.081Z,24.40
2017-09-15T11:01:28.181Z,24.67
2017-09-15T11:03:57.243Z,25.05
2017-09-15T11:06:25.537Z,24.80
2017-09-15T11:08:53.850Z,24.54
2017-09-15T11:11:22.154Z,24.88
2017-09-15T11:13:50.480Z,24.20
2017-09-15T11:16:19.551Z,21.50
2017-09-15T11:18:47.852Z,20.14
2017-09-15T11:21:16.921Z,20.49
2017-09-15T11:23:45.228Z,19.78
2017-09-15T11:26:13.553Z,19.53
2017-09-15T11:28:42.627Z,19.73
2017-09-15T11:31:10.989Z,19.85
2017-09-15T11:33:39.289Z,19.73
2017-09-15T11:36:07.599Z,19.63
2017-09-15T11:38:35.936Z,18.92
2017-09-15T11:41:04.235Z,19.08
2017-09-15T11:43:32.545Z,19.05
2017-09-15T11:46:01.662Z,18.90
2017-09-15T11:48:30.749Z,18.88
2017-09-15T11:50:59.853Z,18.79
2017-09-15T11:53:28.926Z,18.80
2017-09-15T11:55:57.242Z,18.62
2017-09-15T11:58:25.564Z,18.25
2017-09-15T12:00:53.874Z,18.12
2017-09-15T12:03:22.972Z,18.11
2017-09-15T12:05:52.051Z,18.06
2017-09-15T12:08:20.357Z,18.10
2017-09-15T12:10:48.682Z,18.53
2017-09-15T12:13:17.050Z,19.30
2017-09-15T12:15:45.362Z,19.96
2017-09-15T12:18:13.662Z,19.90
2017-09-15T12:20:42.742Z,20.00
2017-09-15T12:23:11.043Z,20.68
2017-09-15T12:25:39.364Z,20.62
2017-09-15T12:28:07.669Z,21.00
2017-09-15T12:30:35.981Z,21.10
2017-09-15T12:33:04.293Z,20.65
2017-09-15T12:35:32.629Z,20.31
2017-09-15T12:38:00.934Z,19.88
2017-09-15T12:40:29.267Z,19.75
2017-09-15T12:42:58.351Z,19.47
2017-09-15T12:45:26.681Z,19.09
2017-09-15T12:47:54.981Z,19.19
2017-09-15T12:50:23.283Z,18.95
2017-09-15T12:52:51.594Z,18.76
2017-09-15T12:55:19.905Z,18.26
2017-09-15T12:57:48.236Z,18.52
2017-09-15T13:00:16.557Z,18.46
2017-09-15T13:02:44.858Z,18.57
2017-09-15T13:05:13.164Z,18.62
2017-09-15T13:07:42.226Z,18.60
2017-09-15T13:10:10.523Z,18.57
2017-09-15T13:12:39.638Z,18.64
2017-09-15T13:15:08.695Z,18.59
2017-09-15T13:17:36.989Z,18.71
2017-09-15T13:20:06.103Z,18.90
2017-09-15T13:22:34.409Z,19.00
2017-09-15T13:25:02.708Z,18.72
2017-09-15T13:27:31.027Z,18.42
2017-09-15T13:30:00.091Z,18.36
2017-09-15T13:32:28.401Z,18.28
2017-09-15T13:34:57.461Z,18.51
2017-09-15T13:37:25.791Z,18.53
2017-09-15T13:39:54.096Z,18.71
2017-09-15T13:42:22.421Z,18.58
2017-09-15T13:44:51.497Z,18.41
2017-09-15T13:47:19.809Z,18.44
2017-09-15T13:49:48.127Z,18.36
2017-09-15T13:52:16.434Z,18.30
2017-09-15T13:54:44.747Z,18.48
2017-09-15T13:57:13.066Z,18.75
2017-09-15T13:59:41.381Z,18.79
2017-09-15T14:02:10.446Z,18.76
2017-09-15T14:04:38.765Z,18.80
2017-09-15T14:07:07.830Z,18.94
2017-09-15T14:09:36.162Z,19.02
2017-09-15T14:12:04.462Z,18.65
2017-09-15T14:14:32.772Z,18.62
2017-09-15T14:17:01.854Z,18.53
2017-09-15T14:19:30.149Z,18.76
2017-09-15T14:21:59.235Z,18.87
2017-09-15T14:24:27.563Z,19.12
2017-09-15T14:26:55.878Z,19.21
2017-09-15T14:29:24.173Z,19.81
2017-09-15T14:31:53.283Z,19.60
2017-09-15T14:34:22.350Z,19.68
2017-09-15T14:36:50.646Z,19.61
2017-09-15T14:39:19.778Z,20.11
2017-09-15T14:41:48.077Z,20.30
2017-09-15T14:44:16.407Z,19.47
2017-09-15T14:46:45.465Z,19.73
2017-09-15T14:49:13.777Z,19.54
2017-09-15T14:51:42.847Z,19.54
2017-09-15T14:54:11.192Z,19.15
2017-09-15T14:56:39.490Z,18.77
2017-09-15T14:59:07.781Z,18.74
2017-09-15T15:01:36.111Z,18.76
2017-09-15T15:04:04.401Z,18.59
2017-09-15T15:06:32.705Z,18.54
2017-09-15T15:09:01.015Z,18.74
2017-09-15T15:11:30.089Z,18.61
2017-09-15T15:13:58.395Z,18.65
2017-09-15T15:16:26.730Z,18.43
2017-09-15T15:18:55.034Z,18.51
2017-09-15T15:21:24.111Z,18.42
2017-09-15T15:23:52.417Z,18.29
2017-09-15T15:26:21.481Z,18.24
2017-09-15T15:28:49.801Z,18.10
2017-09-15T15:31:18.117Z,17.88
2017-09-15T15:33:47.189Z,17.84
2017-09-15T15:36:15.496Z,17.67
2017-09-15T15:38:43.847Z,18.20
2017-09-15T15:41:12.144Z,18.38
2017-09-15T15:43:40.459Z,18.35
2017-09-15T15:46:09.539Z,18.28
2017-09-15T15:48:38.614Z,18.77
2017-09-15T15:51:06.924Z,18.52
2017-09-15T15:53:35.230Z,18.40
2017-09-15T15:56:03.530Z,18.62
2017-09-15T15:58:31.852Z,18.61
2017-09-15T16:01:00.955Z,18.45
2017-09-15T16:03:30.017Z,18.57
2017-09-15T16:05:58.323Z,18.45
2017-09-15T16:08:27.390Z,18.58
2017-09-15T16:10:55.685Z,18.80
2017-09-15T16:13:24.000Z,18.72
2017-09-15T16:15:52.304Z,18.52
2017-09-15T16:18:20.617Z,18.26
2017-09-15T16:20:48.930Z,18.15
2017-09-15T16:23:17.266Z,17.88
2017-09-15T16:25:46.348Z,17.64
2017-09-15T16:28:14.649Z,17.99
2017-09-15T16:30:43.739Z,17.98
2017-09-15T16:33:12.055Z,17.88
2017-09-15T16:35:40.366Z,17.66
2017-09-15T16:38:14.131Z,17.42
2017-09-15T16:40:47.937Z,17.40
2017-09-15T16:43:21.640Z,17.10
2017-09-15T16:45:55.445Z,16.95
2017-09-15T16:48:29.055Z,16.75
2017-09-15T16:50:57.366Z,16.65
2017-09-15T16:53:25.676Z,16.53
2017-09-15T16:55:54.788Z,16.41
2017-09-15T16:58:23.098Z,16.26
2017-09-15T17:00:51.403Z,16.13
2017-09-15T17:03:19.729Z,16.02
2017-09-15T17:05:48.030Z,15.94
2017-09-15T17:08:16.343Z,15.99
2017-09-15T17:10:44.649Z,15.93
2017-09-15T17:13:13.722Z,15.93
2017-09-15T17:15:42.095Z,15.69
2017-09-15T17:18:10.455Z,15.56
2017-09-15T17:20:38.765Z,15.43
2017-09-15T17:23:07.074Z,15.32
2017-09-15T17:25:35.382Z,15.19
2017-09-15T17:28:03.678Z,15.05
2017-09-15T17:30:32.020Z,14.95
2017-09-15T17:33:00.319Z,14.85
2017-09-15T17:35:28.645Z,14.75
2017-09-15T17:37:57.757Z,14.65
2017-09-15T17:40:26.055Z,14.61
2017-09-15T17:42:54.366Z,14.54
2017-09-15T17:45:22.683Z,14.49
2017-09-15T17:47:51.051Z,14.42
2017-09-15T17:50:20.121Z,14.34
2017-09-15T17:52:49.174Z,14.31
2017-09-15T17:55:18.302Z,14.29
2017-09-15T17:57:46.638Z,14.26
2017-09-15T18:00:14.959Z,14.20
2017-09-15T18:02:43.262Z,14.15
2017-09-15T18:05:12.341Z,14.09
2017-09-15T18:07:40.653Z,14.13
2017-09-15T18:10:08.991Z,14.20
2017-09-15T18:12:37.338Z,14.52
2017-09-15T18:15:05.665Z,15.23
2017-09-15T18:17:34.741Z,14.83
2017-09-15T18:20:03.071Z,14.65
2017-09-15T18:22:31.370Z,14.64
2017-09-15T18:24:59.752Z,14.67
2017-09-15T18:27:28.066Z,14.66
2017-09-15T18:29:56.367Z,14.60
2017-09-15T18:32:24.682Z,14.64
2017-09-15T18:34:53.757Z,14.47
2017-09-15T18:37:22.137Z,14.33
2017-09-15T18:39:50.452Z,14.20
2017-09-15T18:42:18.771Z,14.13
2017-09-15T18:44:47.118Z,14.03
2017-09-15T18:47:15.434Z,13.91
2017-09-15T18:49:43.739Z,13.86
2017-09-15T18:52:12.081Z,13.82
2017-09-15T18:54:41.158Z,13.76
2017-09-15T18:57:10.267Z,13.70
2017-09-15T18:59:38.590Z,13.59
2017-09-15T19:02:06.889Z,13.55
2017-09-15T19:04:35.202Z,13.55
2017-09-15T19:07:04.389Z,13.46
2017-09-15T19:09:33.480Z,13.47
2017-09-15T19:12:02.553Z,13.45
2017-09-15T19:14:30.890Z,13.39
2017-09-15T19:16:59.189Z,13.33
2017-09-15T19:19:27.523Z,13.25
2017-09-15T19:21:55.835Z,13.18
2017-09-15T19:24:24.196Z,13.12
2017-09-15T19:26:52.543Z,13.00
2017-09-15T19:29:21.661Z,12.88
2017-09-15T19:31:50.019Z,12.80
2017-09-15T19:34:19.094Z,12.66
2017-09-15T19:36:47.410Z,12.63
2017-09-15T19:39:15.717Z,12.58
2017-09-15T19:41:44.076Z,12.53
2017-09-15T19:44:12.387Z,12.48
2017-09-15T19:46:40.720Z,12.40
2017-09-15T19:49:09.033Z,12.31
2017-09-15T19:51:37.380Z,12.17
2017-09-15T19:54:05.736Z,12.13
2017-09-15T19:56:34.818Z,12.09
2017-09-15T19:59:03.142Z,11.93
2017-09-15T20:01:31.450Z,11.79
2017-09-15T20:04:00.581Z,11.78
2017-09-15T20:06:29.657Z,11.68
2017-09-15T20:08:57.967Z,11.61
2017-09-15T20:11:26.325Z,11.61
2017-09-15T20:13:55.467Z,11.61
2017-09-15T20:16:23.784Z,11.59
2017-09-15T20:18:52.109Z,11.60
2017-09-15T20:21:20.410Z,11.62
2017-09-15T20:23:48.763Z,11.58
2017-09-15T20:26:17.111Z,11.50
2017-09-15T20:28:45.418Z,11.50
2017-09-15T20:31:13.734Z,11.52
2017-09-15T20:33:42.070Z,11.47
2017-09-15T20:36:10.377Z,11.48
2017-09-15T20:38:38.685Z,11.55
2017-09-15T20:41:07.049Z,11.57
2017-09-15T20:43:35.370Z,11.52
2017-09-15T20:46:03.718Z,11.44
2017-09-15T20:48:32.069Z,11.39
2017-09-15T20:51:00.426Z,11.32
2017-09-15T20:53:28.743Z,11.22
2017-09-15T20:55:57.042Z,11.17
2017-09-15T20:58:26.120Z,11.15
2017-09-15T21:00:54.422Z,11.13
2017-09-15T21:03:23.507Z,11.15
2017-09-15T21:05:51.803Z,11.12
2017-09-15T21:08:20.877Z,11.11
2017-09-15T21:10:49.169Z,11.10
2017-09-15T21:13:18.233Z,11.13
2017-09-15T21:15:46.529Z,11.14
2017-09-15T21:18:16.137Z,11.15
2017-09-15T21:20:45.229Z,11.16
2017-09-15T21:23:14.309Z,11.13
2017-09-15T21:25:42.618Z,11.07
2017-09-15T21:28:11.693Z,11.06
2017-09-15T21:30:40.005Z,11.10
2017-09-15T21:33:08.328Z,11.14
2017-09-15T21:35:36.638Z,11.10
2017-09-15T21:38:05.786Z,11.07
2017-09-15T21:40:34.117Z,11.04
2017-09-15T21:43:03.189Z,11.11
2017-09-15T21:45:31.489Z,11.09
2017-09-15T21:48:00.571Z,11.03
2017-09-15T21:50:29.631Z,11.03
2017-09-15T21:52:57.946Z,10.98
2017-09-15T21:55:27.018Z,11.02
2017-09-15T21:57:55.342Z,11.02
2017-09-15T22:00:23.663Z,11.01
2017-09-15T22:02:51.992Z,11.00
2017-09-15T22:05:20.326Z,10.95
2017-09-15T22:07:48.662Z,10.94
2017-09-15T22:10:16.957Z,10.88
2017-09-15T22:12:45.265Z,10.83
2017-09-15T22:15:13.596Z,10.81
2017-09-15T22:17:41.903Z,10.86
2017-09-15T22:20:10.997Z,10.90
2017-09-15T22:22:39.298Z,10.96
2017-09-15T22:25:07.607Z,10.94
2017-09-15T22:27:35.926Z,10.86
2017-09-15T22:30:04.268Z,10.78
2017-09-15T22:32:32.586Z,10.61
2017-09-15T22:35:00.889Z,10.46
2017-09-15T22:37:29.190Z,10.41
2017-09-15T22:39:57.530Z,10.27
2017-09-15T22:42:25.835Z,10.23
2017-09-15T22:44:54.901Z,10.23
2017-09-15T22:47:23.216Z,10.20
2017-09-15T22:49:51.537Z,10.18
2017-09-15T22:52:19.846Z,10.20
2017-09-15T22:54:48.163Z,10.20
2017-09-15T22:57:16.491Z,10.27
2017-09-15T22:59:44.795Z,10.28
2017-09-15T23:02:13.873Z,10.27
2017-09-15T23:04:42.218Z,10.22
2017-09-15T23:07:10.513Z,10.23
2017-09-15T23:09:38.832Z,10.24
2017-09-15T23:12:07.150Z,10.19
2017-09-15T23:14:35.463Z,10.17
2017-09-15T23:17:04.543Z,10.12
2017-09-15T23:19:32.865Z,10.08
2017-09-15T23:22:01.174Z,10.07
2017-09-15T23:24:29.487Z,10.08
2017-09-15T23:26:58.013Z,9.97
2017-09-15T23:29:26.338Z,9.93
2017-09-15T23:31:54.633Z,9.93
2017-09-15T23:34:23.702Z,9.94
2017-09-15T23:36:52.006Z,9.93
2017-09-15T23:39:21.065Z,9.92
2017-09-15T23:41:49.377Z,9.88
2017-09-15T23:44:17.686Z,9.86
2017-09-15T23:46:45.984Z,9.83
2017-09-15T23:49:14.385Z,9.76
2017-09-15T23:51:42.711Z,9.70
2017-09-15T23:54:11.014Z,9.69
2017-09-15T23:56:39.305Z,9.64
2017-09-15T23:59:08.378Z,9.64
